createdAt,value
2019-04-14T19:01:46.312Z,24.67
2019-04-14T19:04:20.518Z,24.90
2019-04-14T19:06:55.693Z,21.82
2019-04-14T19:09:31.758Z,30.68
2019-04-14T19:12:24.469Z,33.92
2019-04-14T19:15:08.902Z,29.75
2019-04-14T19:17:58.066Z,25.80
2019-04-14T19:20:32.196Z,30.05
2019-04-14T19:23:06.676Z,25.52
2019-04-14T19:25:40.803Z,24.67
2019-04-14T19:28:14.983Z,23.80
2019-04-14T19:30:49.171Z,23.35
2019-04-14T19:33:23.102Z,22.80
2019-04-14T19:35:57.579Z,26.50
2019-04-14T19:38:32.174Z,20.77
2019-04-14T19:41:07.417Z,23.45
2019-04-14T19:43:41.654Z,25.43
2019-04-14T19:46:16.077Z,24.35
2019-04-14T19:48:50.069Z,18.98
2019-04-14T19:51:25.055Z,21.25
2019-04-14T19:53:59.283Z,20.82
2019-04-14T19:56:33.318Z,18.60
2019-04-14T19:59:07.497Z,21.15
2019-04-14T20:01:41.688Z,21.55
2019-04-14T20:04:16.081Z,23.55
2019-04-14T20:06:50.282Z,18.80
2019-04-14T20:09:24.378Z,20.50
2019-04-14T20:11:58.702Z,20.25
2019-04-14T20:14:32.641Z,18.32
2019-04-14T20:17:24.485Z,16.07
2019-04-14T20:20:07.079Z,21.37
2019-04-14T20:26:06.071Z,16.42
2019-04-14T20:28:49.960Z,21.12
2019-04-14T20:31:45.880Z,22.73
2019-04-14T20:34:19.895Z,18.27
2019-04-14T20:36:54.176Z,14.05
2019-04-14T20:39:28.666Z,16.85
2019-04-14T20:42:03.053Z,18.57
2019-04-14T20:44:37.334Z,14.65
2019-04-14T20:47:11.703Z,16.82
2019-04-14T20:49:46.314Z,17.40
2019-04-14T20:52:20.663Z,15.35
2019-04-14T20:54:56.632Z,20.60
2019-04-14T20:57:31.151Z,18.15
2019-04-14T21:00:05.977Z,20.08
2019-04-14T21:02:59.405Z,16.10
2019-04-14T21:05:56.040Z,16.35
2019-04-14T21:08:47.762Z,20.30
2019-04-14T21:11:26.245Z,20.57
2019-04-14T21:14:25.422Z,17.35
2019-04-14T21:17:24.470Z,18.77
2019-04-14T21:20:30.020Z,17.23
2019-04-14T21:23:22.317Z,21.30
2019-04-14T21:26:21.665Z,16.77
2019-04-14T21:29:14.480Z,19.02
2019-04-14T21:34:59.618Z,15.80
2019-04-14T21:37:51.855Z,17.12
2019-04-14T21:40:32.529Z,14.40
2019-04-14T21:43:06.795Z,15.90
2019-04-14T21:45:40.985Z,16.45
2019-04-14T21:48:15.217Z,16.30
2019-04-14T21:50:49.518Z,15.70
2019-04-14T21:53:23.609Z,19.02
2019-04-14T21:55:58.261Z,15.58
2019-04-14T21:58:54.244Z,16.65
2019-04-14T22:01:53.474Z,18.48
2019-04-14T22:04:52.848Z,15.72
2019-04-14T22:07:48.978Z,17.07
2019-04-14T22:10:47.713Z,19.65
2019-04-14T22:13:22.849Z,19.00
2019-04-14T22:15:57.042Z,15.38
2019-04-14T22:18:31.178Z,16.82
2019-04-14T22:21:06.028Z,18.15
2019-04-14T22:23:40.321Z,13.58
2019-04-14T22:26:25.526Z,15.60
2019-04-14T22:28:50.969Z,15.58
2019-04-14T22:31:25.016Z,15.83
2019-04-14T22:33:59.242Z,16.77
2019-04-14T22:36:33.668Z,14.75
2019-04-14T22:39:11.405Z,17.60
2019-04-14T22:41:45.412Z,15.55
2019-04-14T22:44:19.861Z,13.50
2019-04-14T22:46:54.252Z,14.30
2019-04-14T22:49:28.724Z,15.25
2019-04-14T22:52:03.088Z,14.00
2019-04-14T22:54:37.410Z,15.70
2019-04-14T22:57:12.075Z,13.62
2019-04-14T22:59:46.374Z,14.95
2019-04-14T23:02:39.605Z,13.35
2019-04-14T23:05:23.769Z,16.17
2019-04-14T23:08:19.685Z,13.68
2019-04-14T23:11:18.898Z,13.15
2019-04-14T23:14:10.098Z,12.58
2019-04-14T23:17:14.721Z,16.67
2019-04-14T23:20:02.063Z,15.00
2019-04-14T23:22:53.927Z,15.95
2019-04-14T23:25:28.247Z,10.72
2019-04-14T23:28:03.056Z,14.70
2019-04-14T23:30:37.525Z,16.85
2019-04-14T23:33:11.671Z,15.43
2019-04-14T23:35:46.166Z,13.80
2019-04-14T23:38:20.360Z,12.10
2019-04-14T23:40:54.843Z,12.78
2019-04-14T23:43:29.153Z,15.85
2019-04-14T23:46:03.848Z,12.85
2019-04-14T23:48:38.211Z,13.43
2019-04-14T23:51:12.234Z,15.40
2019-04-14T23:53:46.480Z,14.25
2019-04-14T23:56:20.751Z,13.62
2019-04-14T23:58:57.162Z,16.23
